Time;durP1;ratioP1;P1;durP2;ratioP2;P2;SDS_P1;SDS_P2;PMS_P1;PMS_P2;Temp;Humidity;BMP_temperature;BMP_pressure;BME280_temperature;BME280_humidity;BME280_pressure;Samples;Min_cycle;Max_cycle;Signal;HPM_P1;HPM_P2
2022/08/31 00:04:57;;;;;;;0.75;0.55;;;;;;;-145.06;100.00;60892.56;4796858;28;20035;-85
2022/08/31 00:07:37;;;;;;;0.60;0.50;;;;;;;-145.06;100.00;60892.56;4790059;28;20027;-85
2022/08/31 00:10:17;;;;;;;0.77;0.60;;;;;;;-145.06;100.00;60892.56;4792676;28;20035;-85
2022/08/31 00:12:56;;;;;;;1.52;0.55;;;;;;;-145.06;100.00;60892.56;4795681;28;20121;-85
2022/08/31 00:15:35;;;;;;;0.82;0.60;;;;;;;-145.06;100.00;60892.56;4795156;28;20398;-85
2022/08/31 00:18:15;;;;;;;0.88;0.63;;;;;;;-145.06;100.00;60892.56;4792274;28;20454;-85
2022/08/31 00:20:54;;;;;;;1.42;0.43;;;;;;;-145.06;100.00;60892.56;4787226;28;20476;-85
2022/08/31 00:23:33;;;;;;;0.80;0.50;;;;;;;-145.06;100.00;60892.56;4795596;28;20121;-85
2022/08/31 00:26:12;;;;;;;0.70;0.50;;;;;;;-145.06;100.00;60892.56;4796715;28;20034;-85
2022/08/31 00:28:52;;;;;;;1.30;0.50;;;;;;;-145.06;100.00;60892.56;4784628;28;20277;-85
2022/08/31 00:31:31;;;;;;;0.80;0.50;;;;;;;-145.06;100.00;60892.56;4777334;28;20082;-85
2022/08/31 00:34:10;;;;;;;0.70;0.53;;;;;;;-145.06;100.00;60892.56;4803208;28;20035;-85
2022/08/31 00:36:49;;;;;;;1.10;0.70;;;;;;;-145.06;100.00;60892.56;4781302;28;21021;-85
2022/08/31 00:39:28;;;;;;;0.70;0.60;;;;;;;-145.06;100.00;60892.56;4779725;28;20059;-85
2022/08/31 00:42:07;;;;;;;0.90;0.40;;;;;;;-145.06;100.00;60892.56;4792929;28;20437;-84
2022/08/31 00:44:46;;;;;;;0.50;0.47;;;;;;;-145.06;100.00;60892.56;4793668;28;20169;-85
2022/08/31 00:47:25;;;;;;;1.08;0.52;;;;;;;-145.06;100.00;60892.56;4794356;28;20023;-86
2022/08/31 00:50:07;;;;;;;1.17;0.40;;;;;;;-145.06;100.00;60892.56;4789810;28;20374;-84
2022/08/31 00:52:51;;;;;;;0.95;0.52;;;;;;;-145.06;100.00;60892.56;4790268;28;20034;-85
2022/08/31 00:55:35;;;;;;;0.50;0.40;;;;;;;-145.06;100.00;60892.56;4791378;28;20528;-85
2022/08/31 00:58:14;;;;;;;0.60;0.50;;;;;;;-145.06;100.00;60892.56;4798080;28;20027;-85
2022/08/31 01:00:53;;;;;;;1.50;0.73;;;;;;;-145.06;100.00;60892.56;4798894;28;20030;-85
2022/08/31 01:03:32;;;;;;;0.70;0.50;;;;;;;-145.06;100.00;60892.56;4793344;28;20039;-85
2022/08/31 01:06:13;;;;;;;1.83;0.50;;;;;;;-145.06;100.00;60892.56;4801915;28;20489;-85
2022/08/31 01:08:56;;;;;;;0.40;0.40;;;;;;;-145.06;100.00;60892.56;4794830;28;20034;-84
2022/08/31 01:11:37;;;;;;;1.02;0.40;;;;;;;-145.06;100.00;60892.56;4795982;28;20042;-85
2022/08/31 01:14:16;;;;;;;0.80;0.50;;;;;;;-145.06;100.00;60892.56;4799856;28;20054;-85
2022/08/31 01:16:55;;;;;;;0.88;0.60;;;;;;;-145.06;100.00;60892.56;4798554;28;20126;-85
2022/08/31 01:19:34;;;;;;;0.57;0.53;;;;;;;-145.06;100.00;60892.56;4797234;28;20039;-84
2022/08/31 01:22:19;;;;;;;0.80;0.53;;;;;;;-145.06;100.00;60892.56;4796044;28;20031;-85
2022/08/31 01:24:58;;;;;;;0.60;0.43;;;;;;;-145.06;100.00;60892.56;4800295;28;20039;-86
2022/08/31 01:27:37;;;;;;;1.83;0.57;;;;;;;-145.06;100.00;60892.56;4794986;28;20027;-84
2022/08/31 01:30:22;;;;;;;1.38;0.43;;;;;;;-145.06;100.00;60892.56;4796655;28;20374;-85
2022/08/31 01:33:02;;;;;;;0.32;0.32;;;;;;;-145.06;100.00;60892.56;4781293;28;20509;-85
2022/08/31 01:35:43;;;;;;;0.98;0.50;;;;;;;-145.06;100.00;60892.56;4790001;28;20039;-85
2022/08/31 01:38:23;;;;;;;0.60;0.50;;;;;;;-145.06;100.00;60892.56;4796389;28;20047;-85
2022/08/31 01:41:03;;;;;;;1.08;0.55;;;;;;;-145.06;100.00;60892.56;4782519;28;20035;-84
2022/08/31 01:43:42;;;;;;;1.60;0.70;;;;;;;-145.06;100.00;60892.56;4794333;28;20366;-85
2022/08/31 01:46:21;;;;;;;0.77;0.65;;;;;;;-145.06;100.00;60892.56;4801580;28;20485;-85
2022/08/31 01:49:00;;;;;;;0.90;0.70;;;;;;;-145.06;100.00;60892.56;4796850;28;20035;-84
2022/08/31 01:51:40;;;;;;;0.80;0.52;;;;;;;-145.06;100.00;60892.56;4795716;28;20038;-85
2022/08/31 01:54:22;;;;;;;0.45;0.40;;;;;;;-145.06;100.00;60892.56;4797031;28;20043;-85
2022/08/31 01:57:01;;;;;;;0.60;0.60;;;;;;;-145.06;100.00;60892.56;4784684;28;20050;-85
2022/08/31 01:59:40;;;;;;;0.30;0.30;;;;;;;-145.06;100.00;60892.56;4794168;28;20038;-85
2022/08/31 02:02:19;;;;;;;0.60;0.50;;;;;;;-145.06;100.00;60892.56;4793924;28;20038;-85
2022/08/31 02:04:58;;;;;;;0.80;0.60;;;;;;;-145.06;100.00;60892.56;4781985;28;20286;-85
2022/08/31 02:07:37;;;;;;;1.03;0.70;;;;;;;-145.06;100.00;60892.56;4794082;28;20281;-85
2022/08/31 02:10:16;;;;;;;0.90;0.47;;;;;;;-145.06;100.00;60892.56;4795349;28;20379;-85
2022/08/31 02:12:55;;;;;;;1.00;0.60;;;;;;;-145.06;100.00;60892.56;4801443;28;20073;-84
2022/08/31 02:15:37;;;;;;;1.20;0.73;;;;;;;-145.06;100.00;60892.56;4792862;28;20062;-85
2022/08/31 02:18:16;;;;;;;1.08;0.50;;;;;;;-145.06;100.00;60892.56;4786548;28;20042;-86
2022/08/31 02:20:55;;;;;;;4.13;1.40;;;;;;;-145.06;100.00;60892.56;4804494;28;20030;-85
2022/08/31 02:23:34;;;;;;;6.90;2.42;;;;;;;-145.06;100.00;60892.56;4780585;28;20046;-85
2022/08/31 02:26:13;;;;;;;6.72;2.70;;;;;;;-145.06;100.00;60892.56;4786153;28;20482;-85
2022/08/31 02:28:53;;;;;;;6.40;2.47;;;;;;;-145.06;100.00;60892.56;4789304;28;20035;-84
2022/08/31 02:31:32;;;;;;;3.47;1.70;;;;;;;-145.06;100.00;60892.56;4800259;28;20489;-85
2022/08/31 02:34:12;;;;;;;3.20;1.35;;;;;;;-145.06;100.00;60892.56;4801836;28;20038;-84
2022/08/31 02:36:51;;;;;;;2.15;0.80;;;;;;;-145.06;100.00;60892.56;4791626;28;20027;-85
2022/08/31 02:39:30;;;;;;;1.73;0.90;;;;;;;-145.06;100.00;60892.56;4793688;28;20374;-85
2022/08/31 02:42:09;;;;;;;1.10;0.73;;;;;;;-145.06;100.00;60892.56;4785873;28;20027;-85
2022/08/31 02:44:48;;;;;;;1.17;0.77;;;;;;;-145.06;100.00;60892.56;4783536;28;20418;-85
2022/08/31 02:47:29;;;;;;;1.13;0.60;;;;;;;-145.06;100.00;60892.56;4782562;28;20058;-85
2022/08/31 02:50:09;;;;;;;0.93;0.60;;;;;;;-145.06;100.00;60892.56;4789368;28;20477;-85
2022/08/31 02:52:49;;;;;;;0.70;0.60;;;;;;;-145.06;100.00;60892.56;4780031;28;20366;-85
2022/08/31 02:55:28;;;;;;;0.90;0.50;;;;;;;-145.06;100.00;60892.56;4793128;28;20057;-85
2022/08/31 02:58:09;;;;;;;0.60;0.47;;;;;;;-145.06;100.00;60892.56;4793118;28;20117;-86
2022/08/31 03:00:48;;;;;;;0.93;0.60;;;;;;;-145.06;100.00;60892.56;4804999;28;20117;-85
2022/08/31 03:03:27;;;;;;;0.67;0.50;;;;;;;-145.06;100.00;60892.56;4782330;28;20038;-86
2022/08/31 03:06:06;;;;;;;0.90;0.70;;;;;;;-145.06;100.00;60892.56;4795603;28;20034;-87
2022/08/31 03:08:46;;;;;;;2.13;0.60;;;;;;;-145.06;100.00;60892.56;4793750;28;20038;-85
2022/08/31 03:11:26;;;;;;;1.13;0.80;;;;;;;-145.06;100.00;60892.56;4795962;28;20058;-86
2022/08/31 03:14:05;;;;;;;1.13;0.88;;;;;;;-145.06;100.00;60892.56;4783238;28;20034;-86
2022/08/31 03:16:44;;;;;;;1.23;0.70;;;;;;;-145.06;100.00;60892.56;4781209;28;20031;-86
2022/08/31 03:19:23;;;;;;;1.60;0.50;;;;;;;-145.06;100.00;60892.56;4784500;28;20401;-85
2022/08/31 03:22:02;;;;;;;3.10;0.60;;;;;;;-145.06;100.00;60892.56;4793280;28;20481;-85
2022/08/31 03:24:42;;;;;;;1.80;0.70;;;;;;;-145.06;100.00;60892.56;4778956;28;20362;-85
2022/08/31 03:27:23;;;;;;;1.13;0.63;;;;;;;-145.06;100.00;60892.56;4778794;28;20449;-86
2022/08/31 03:30:06;;;;;;;0.93;0.57;;;;;;;-145.06;100.00;60892.56;4794183;28;20105;-85
2022/08/31 03:32:47;;;;;;;1.15;0.63;;;;;;;-145.06;100.00;60892.56;4785692;28;20030;-85
2022/08/31 03:35:26;;;;;;;1.13;0.68;;;;;;;-145.06;100.00;60892.56;4784761;28;20066;-86
2022/08/31 03:38:05;;;;;;;0.73;0.57;;;;;;;-145.06;100.00;60892.56;4782601;28;20034;-86
2022/08/31 03:40:44;;;;;;;1.05;0.60;;;;;;;-145.06;100.00;60892.56;4791758;28;20046;-85
2022/08/31 03:43:23;;;;;;;0.93;0.50;;;;;;;-145.06;100.00;60892.56;4786708;28;20491;-86
2022/08/31 03:46:03;;;;;;;0.93;0.70;;;;;;;-145.06;100.00;60892.56;4778436;28;20482;-86
2022/08/31 03:48:46;;;;;;;1.27;0.80;;;;;;;-145.06;100.00;60892.56;4798696;28;20704;-86
2022/08/31 03:51:25;;;;;;;0.85;0.57;;;;;;;-145.06;100.00;60892.56;4780146;28;20381;-87
2022/08/31 03:54:04;;;;;;;1.48;0.70;;;;;;;-145.06;100.00;60892.56;4778405;28;20027;-86
2022/08/31 03:56:43;;;;;;;2.33;0.60;;;;;;;-145.06;100.00;60892.56;4777994;28;20623;-86
2022/08/31 03:59:22;;;;;;;0.95;0.65;;;;;;;-145.06;100.00;60892.56;4790314;28;20073;-86
2022/08/31 04:02:01;;;;;;;1.10;0.70;;;;;;;-145.06;100.00;60892.56;4772168;28;20035;-86
2022/08/31 04:04:40;;;;;;;0.70;0.68;;;;;;;-145.06;100.00;60892.56;4789829;28;21131;-84
2022/08/31 04:07:20;;;;;;;0.50;0.43;;;;;;;-145.06;100.00;60892.56;4791414;28;20484;-85
2022/08/31 04:09:59;;;;;;;1.73;0.77;;;;;;;-145.06;100.00;60892.56;4791418;28;20390;-85
2022/08/31 04:12:38;;;;;;;1.48;0.65;;;;;;;-145.06;100.00;60892.56;4779219;28;20066;-85
2022/08/31 04:15:19;;;;;;;1.42;0.68;;;;;;;-145.06;100.00;60892.56;4776720;28;20039;-85
2022/08/31 04:17:57;;;;;;;;;;;;;;;-145.06;100.00;60892.56;4794778;28;20042;-84
2022/08/31 04:20:41;;;;;;;0.98;0.70;;;;;;;-145.06;100.00;60892.56;4789030;28;19918;-84
2022/08/31 04:23:20;;;;;;;1.00;0.60;;;;;;;-145.06;100.00;60892.56;4774513;28;20442;-84
2022/08/31 04:25:59;;;;;;;1.00;0.70;;;;;;;-145.06;100.00;60892.56;4787507;28;20030;-85
2022/08/31 04:28:38;;;;;;;0.90;0.70;;;;;;;-145.06;100.00;60892.56;4778656;28;20129;-84
2022/08/31 04:31:19;;;;;;;0.60;0.50;;;;;;;-145.06;100.00;60892.56;4775484;28;20346;-84
2022/08/31 04:33:59;;;;;;;0.80;0.70;;;;;;;-145.06;100.00;60892.56;4784493;28;20673;-84
2022/08/31 04:36:38;;;;;;;0.80;0.60;;;;;;;-145.06;100.00;60892.56;4781454;28;20035;-84
2022/08/31 04:39:17;;;;;;;0.80;0.60;;;;;;;-145.06;100.00;60892.56;4768217;28;20042;-86
2022/08/31 04:41:55;;;;;;;1.07;0.70;;;;;;;-145.06;100.00;60892.56;4772217;28;20066;-85
2022/08/31 04:44:34;;;;;;;1.47;0.70;;;;;;;-145.06;100.00;60892.56;4786789;28;21056;-84
2022/08/31 04:47:13;;;;;;;0.60;0.60;;;;;;;-145.06;100.00;60892.56;4786757;28;20031;-84
2022/08/31 04:49:52;;;;;;;1.27;0.80;;;;;;;-145.06;100.00;60892.56;4783920;28;20278;-84
2022/08/31 04:52:31;;;;;;;3.67;1.13;;;;;;;-145.06;100.00;60892.56;4789438;28;20282;-84
2022/08/31 04:55:10;;;;;;;1.00;0.80;;;;;;;-145.06;100.00;60892.56;4772215;28;20410;-84
2022/08/31 04:57:49;;;;;;;1.83;0.90;;;;;;;-145.06;100.00;60892.56;4774180;28;20024;-85
2022/08/31 05:00:28;;;;;;;1.40;0.70;;;;;;;-145.06;100.00;60892.56;4778980;28;20378;-86
2022/08/31 05:03:07;;;;;;;2.67;1.10;;;;;;;-145.06;100.00;60892.56;4788600;28;20042;-87
2022/08/31 05:05:49;;;;;;;1.00;0.80;;;;;;;-145.06;100.00;60892.56;4790831;28;20716;-86
2022/08/31 05:08:29;;;;;;;1.42;0.80;;;;;;;-145.06;100.00;60892.56;4791785;28;20501;-87
2022/08/31 05:11:15;;;;;;;1.13;0.80;;;;;;;-145.06;100.00;60892.56;4788420;28;20366;-86
2022/08/31 05:13:57;;;;;;;0.82;0.80;;;;;;;-145.06;100.00;60892.56;4781933;28;20485;-86
2022/08/31 05:16:38;;;;;;;1.33;0.80;;;;;;;-145.06;100.00;60892.56;4787800;28;20023;-85
2022/08/31 05:19:18;;;;;;;1.17;0.80;;;;;;;-145.06;100.00;60892.56;4791151;28;20314;-86
2022/08/31 05:21:57;;;;;;;2.90;0.77;;;;;;;-145.06;100.00;60892.56;4777252;28;20445;-86
2022/08/31 05:24:37;;;;;;;1.58;1.00;;;;;;;-145.06;100.00;60892.56;4774654;28;20477;-87
2022/08/31 05:27:18;;;;;;;1.38;0.80;;;;;;;-145.06;100.00;60892.56;4791258;28;20086;-86
2022/08/31 05:29:57;;;;;;;0.82;0.60;;;;;;;-145.06;100.00;60892.56;4774293;28;20038;-84
2022/08/31 05:32:36;;;;;;;1.45;0.70;;;;;;;-145.06;100.00;60892.56;4791560;28;20489;-84
2022/08/31 05:35:15;;;;;;;0.80;0.70;;;;;;;-145.06;100.00;60892.56;4786455;28;20035;-83
2022/08/31 05:37:54;;;;;;;1.20;0.80;;;;;;;-145.06;100.00;60892.56;4796218;28;20327;-84
2022/08/31 05:40:33;;;;;;;0.95;0.80;;;;;;;-145.06;100.00;60892.56;4791716;28;20034;-84
2022/08/31 05:43:12;;;;;;;1.95;0.80;;;;;;;-145.06;100.00;60892.56;4792226;28;20350;-84
2022/08/31 05:45:51;;;;;;;1.33;0.90;;;;;;;-145.06;100.00;60892.56;4791308;28;20043;-85
2022/08/31 05:48:32;;;;;;;0.73;0.60;;;;;;;-145.06;100.00;60892.56;4789907;28;20748;-85
2022/08/31 05:51:14;;;;;;;0.85;0.60;;;;;;;-145.06;100.00;60892.56;4781739;28;20043;-83
2022/08/31 05:53:53;;;;;;;0.82;0.73;;;;;;;-145.06;100.00;60892.56;4785356;28;20034;-88
2022/08/31 05:56:33;;;;;;;1.45;0.85;;;;;;;-145.06;100.00;60892.56;4780090;28;20485;-83
2022/08/31 05:59:13;;;;;;;0.85;0.70;;;;;;;-145.06;100.00;60892.56;4782345;28;20066;-83
2022/08/31 06:01:52;;;;;;;1.23;0.90;;;;;;;-145.06;100.00;60892.56;4799584;28;20045;-84
2022/08/31 06:04:31;;;;;;;1.75;1.10;;;;;;;-145.06;100.00;60892.56;4794047;28;20039;-84
2022/08/31 06:07:10;;;;;;;1.10;0.90;;;;;;;-145.06;100.00;60892.56;4790766;28;20039;-84
2022/08/31 06:09:49;;;;;;;1.10;0.80;;;;;;;-145.06;100.00;60892.56;4777368;28;20166;-83
2022/08/31 06:12:33;;;;;;;1.15;0.90;;;;;;;-145.06;100.00;60892.56;4793434;28;20516;-83
2022/08/31 06:15:12;;;;;;;1.05;0.80;;;;;;;-145.06;100.00;60892.56;4793829;28;20433;-83
2022/08/31 06:17:51;;;;;;;1.83;0.90;;;;;;;-145.06;100.00;60892.56;4793852;28;20382;-83
2022/08/31 06:20:30;;;;;;;1.45;0.57;;;;;;;-145.06;100.00;60892.56;4770534;28;20038;-84
2022/08/31 06:23:09;;;;;;;2.57;1.00;;;;;;;-145.06;100.00;60892.56;4772349;28;20038;-83
2022/08/31 06:25:48;;;;;;;0.80;0.70;;;;;;;-145.06;100.00;60892.56;4773151;28;20070;-83
2022/08/31 06:28:31;;;;;;;0.80;0.70;;;;;;;-145.06;100.00;60892.56;4787477;28;20110;-83
2022/08/31 06:31:25;;;;;;;2.90;0.70;;;;;;;-145.06;100.00;60892.56;4772953;28;20313;-83
2022/08/31 06:34:05;;;;;;;1.75;1.13;;;;;;;-145.06;100.00;60892.56;4770602;28;20313;-83
2022/08/31 06:36:47;;;;;;;0.85;0.70;;;;;;;-145.06;100.00;60892.56;4788111;28;20035;-84
2022/08/31 06:39:26;;;;;;;1.40;0.90;;;;;;;-145.06;100.00;60892.56;4780007;28;20046;-83
2022/08/31 06:42:05;;;;;;;1.30;0.90;;;;;;;-145.06;100.00;60892.56;4781913;28;20034;-83
2022/08/31 06:44:45;;;;;;;1.70;1.00;;;;;;;-145.06;100.00;60892.56;4780342;28;20704;-83
2022/08/31 06:47:24;;;;;;;2.20;0.80;;;;;;;-145.06;100.00;60892.56;4790994;28;20031;-84
2022/08/31 06:50:04;;;;;;;1.08;0.80;;;;;;;-145.06;100.00;60892.56;4771945;28;20043;-83
2022/08/31 06:52:44;;;;;;;1.27;1.15;;;;;;;-145.06;100.00;60892.56;4785832;28;20370;-84
2022/08/31 06:55:23;;;;;;;1.08;0.90;;;;;;;-145.06;100.00;60892.56;4783430;28;20276;-83
2022/08/31 06:58:02;;;;;;;2.03;1.00;;;;;;;-145.06;100.00;60892.56;4766302;28;20047;-83
2022/08/31 07:00:41;;;;;;;1.10;0.93;;;;;;;-145.06;100.00;60892.56;4786515;28;20042;-84
2022/08/31 07:03:23;;;;;;;1.17;0.77;;;;;;;-145.06;100.00;60892.56;4776337;28;20039;-83
2022/08/31 07:06:24;;;;;;;0.88;0.70;;;;;;;-145.06;100.00;60892.56;4777024;28;20034;-83
2022/08/31 07:09:06;;;;;;;1.55;0.85;;;;;;;-145.06;100.00;60892.56;4785563;28;20031;-84
2022/08/31 07:11:48;;;;;;;1.17;1.00;;;;;;;-145.06;100.00;60892.56;4785574;28;20039;-83
2022/08/31 07:14:27;;;;;;;1.05;0.80;;;;;;;-145.06;100.00;60892.56;4779274;28;20375;-83
2022/08/31 07:17:07;;;;;;;1.73;1.07;;;;;;;-145.06;100.00;60892.56;4767549;28;20481;-83
2022/08/31 07:19:47;;;;;;;1.33;0.88;;;;;;;-145.06;100.00;60892.56;4784615;28;20275;-84
2022/08/31 07:22:25;;;;;;;2.40;1.10;;;;;;;-145.06;100.00;60892.56;4784535;28;20038;-83
2022/08/31 07:25:05;;;;;;;0.93;0.80;;;;;;;-145.06;100.00;60892.56;4783578;28;20034;-84
2022/08/31 07:27:45;;;;;;;1.35;0.93;;;;;;;-145.06;100.00;60892.56;4770679;28;21440;-84
2022/08/31 07:30:24;;;;;;;1.15;0.90;;;;;;;-145.06;100.00;60892.56;4770342;28;20416;-83
2022/08/31 07:33:05;;;;;;;2.05;1.00;;;;;;;-145.06;100.00;60892.56;4785885;28;20043;-83
2022/08/31 07:35:44;;;;;;;2.75;1.15;;;;;;;-145.06;100.00;60892.56;4779744;28;20488;-84
2022/08/31 07:44:23;;;;;;;1.73;1.20;;;;;;;-145.06;100.00;60892.56;4785080;28;20650;-84
2022/08/31 07:47:02;;;;;;;1.60;1.20;;;;;;;-145.06;100.00;60892.56;4788660;28;20145;-83
2022/08/31 07:49:46;;;;;;;1.70;1.13;;;;;;;-145.06;100.00;60892.56;4784280;28;20073;-83
2022/08/31 07:52:29;;;;;;;1.48;0.90;;;;;;;-145.06;100.00;60892.56;4771038;28;20074;-83
2022/08/31 07:55:10;;;;;;;1.80;0.95;;;;;;;-145.06;100.00;60892.56;4797521;28;20034;-83
2022/08/31 07:57:53;;;;;;;1.40;0.80;;;;;;;-145.06;100.00;60892.56;4791355;28;20392;-83
2022/08/31 08:00:34;;;;;;;1.13;1.00;;;;;;;-145.06;100.00;60892.56;4784191;28;20043;-83
2022/08/31 08:03:14;;;;;;;1.42;1.20;;;;;;;-145.06;100.00;60892.56;4790555;28;20039;-84
2022/08/31 08:05:54;;;;;;;1.23;1.10;;;;;;;-145.06;100.00;60892.56;4792145;28;20118;-83
2022/08/31 08:08:33;;;;;;;1.10;1.00;;;;;;;-145.06;100.00;60892.56;4779099;28;20477;-84
2022/08/31 08:11:16;;;;;;;1.85;1.08;;;;;;;-145.06;100.00;60892.56;4786800;28;20034;-86
2022/08/31 08:13:55;;;;;;;1.42;1.10;;;;;;;-145.06;100.00;60892.56;4777667;28;20038;-83
2022/08/31 08:16:34;;;;;;;1.50;1.25;;;;;;;-145.06;100.00;60892.56;4778056;28;20038;-83
2022/08/31 08:19:13;;;;;;;2.58;1.30;;;;;;;-145.06;100.00;60892.56;4769953;28;20125;-84
2022/08/31 08:21:52;;;;;;;2.00;1.40;;;;;;;-145.06;100.00;60892.56;4791827;28;20030;-83
2022/08/31 08:24:31;;;;;;;2.33;1.20;;;;;;;-145.06;100.00;60892.56;4782257;28;20141;-83
2022/08/31 08:27:10;;;;;;;1.35;1.08;;;;;;;-145.06;100.00;60892.56;4785789;28;20026;-83
2022/08/31 08:29:49;;;;;;;1.63;1.08;;;;;;;-145.06;100.00;60892.56;4788402;28;20369;-83
2022/08/31 08:32:30;;;;;;;2.55;1.40;;;;;;;-145.06;100.00;60892.56;4786494;28;20042;-84
2022/08/31 08:35:11;;;;;;;1.60;1.50;;;;;;;-145.06;100.00;60892.56;4791941;28;20042;-83
2022/08/31 08:37:50;;;;;;;1.33;1.15;;;;;;;-145.06;100.00;60892.56;4775834;28;20884;-83
2022/08/31 08:40:40;;;;;;;1.25;1.02;;;;;;;-145.06;100.00;60892.56;4784560;28;20121;-83
2022/08/31 08:43:25;;;;;;;1.90;1.13;;;;;;;-145.06;100.00;60892.56;4778133;28;20034;-86
2022/08/31 08:46:07;;;;;;;1.40;1.02;;;;;;;-145.06;100.00;60892.56;4776832;28;20038;-86
2022/08/31 08:48:48;;;;;;;1.42;1.02;;;;;;;-145.06;100.00;60892.56;4773095;28;20721;-85
2022/08/31 08:51:34;;;;;;;2.05;1.35;;;;;;;-145.06;100.00;60892.56;4781985;28;20062;-86
2022/08/31 08:54:24;;;;;;;2.17;1.23;;;;;;;-145.06;100.00;60892.56;4771260;28;20096;-85
2022/08/31 08:57:23;;;;;;;1.38;1.10;;;;;;;-145.06;100.00;60892.56;4786197;28;20034;-84
2022/08/31 09:00:09;;;;;;;1.30;1.10;;;;;;;-145.06;100.00;60892.56;4784435;28;20046;-83
2022/08/31 09:03:00;;;;;;;1.95;1.20;;;;;;;-145.06;100.00;60892.56;4775560;28;20593;-83
2022/08/31 09:06:01;;;;;;;2.47;1.27;;;;;;;-145.06;100.00;60892.56;4781127;28;20039;-84
2022/08/31 09:09:07;;;;;;;1.35;1.10;;;;;;;-145.06;100.00;60892.56;4790449;28;20035;-82
2022/08/31 09:12:06;;;;;;;1.63;1.25;;;;;;;-145.06;100.00;60892.56;4788994;28;20097;-84
2022/08/31 09:15:06;;;;;;;2.28;1.35;;;;;;;-145.06;100.00;60892.56;4784748;28;20039;-84
2022/08/31 09:18:12;;;;;;;1.30;1.10;;;;;;;-145.06;100.00;60892.56;4788961;28;20038;-83
2022/08/31 09:21:19;;;;;;;1.83;1.15;;;;;;;-145.06;100.00;60892.56;4777650;28;20125;-86
2022/08/31 09:24:04;;;;;;;1.27;1.10;;;;;;;-145.06;100.00;60892.56;4791756;28;20038;-86
2022/08/31 09:27:16;;;;;;;1.40;1.10;;;;;;;-145.06;100.00;60892.56;4792044;28;20485;-85
2022/08/31 09:29:59;;;;;;;1.63;1.20;;;;;;;-145.06;100.00;60892.56;4775214;28;20051;-86
2022/08/31 09:32:38;;;;;;;1.65;1.30;;;;;;;-145.06;100.00;60892.56;4792729;28;20517;-86
2022/08/31 09:35:29;;;;;;;2.45;1.50;;;;;;;-145.06;100.00;60892.56;4773557;28;20321;-85
2022/08/31 09:38:25;;;;;;;2.03;1.20;;;;;;;-145.06;100.00;60892.56;4797583;28;20624;-86
2022/08/31 09:41:21;;;;;;;1.23;1.08;;;;;;;-145.06;100.00;60892.56;4772849;28;20038;-86
2022/08/31 09:44:22;;;;;;;2.40;1.13;;;;;;;-145.06;100.00;60892.56;4779326;28;20266;-85
2022/08/31 09:47:04;;;;;;;2.10;1.15;;;;;;;-145.06;100.00;60892.56;4790403;28;20142;-85
2022/08/31 09:49:54;;;;;;;2.30;1.15;;;;;;;-145.06;100.00;60892.56;4788709;28;20035;-85
2022/08/31 09:55:32;;;;;;;1.88;1.20;;;;;;;-145.06;100.00;60892.56;4793023;28;20521;-86
2022/08/31 09:58:13;;;;;;;1.48;1.15;;;;;;;-145.06;100.00;60892.56;4776446;28;20445;-86
2022/08/31 10:00:52;;;;;;;1.17;0.82;;;;;;;-145.06;100.00;60892.56;4773363;28;20046;-87
2022/08/31 10:03:31;;;;;;;1.60;1.20;;;;;;;-145.06;100.00;60892.56;4795201;28;20038;-86
2022/08/31 10:06:44;;;;;;;2.17;1.35;;;;;;;-145.06;100.00;60892.56;4786054;28;20039;-87
2022/08/31 10:09:46;;;;;;;1.40;1.30;;;;;;;-145.06;100.00;60892.56;4779262;28;20417;-87
2022/08/31 10:12:50;;;;;;;1.73;1.30;;;;;;;-145.06;100.00;60892.56;4797614;28;20234;-87
2022/08/31 10:22:50;;;;;;;2.20;1.20;;;;;;;-145.06;100.00;60892.56;4784636;28;20381;-84
2022/08/31 10:25:40;;;;;;;1.65;1.23;;;;;;;-145.06;100.00;60892.56;4791780;28;20058;-85
2022/08/31 10:28:35;;;;;;;1.38;1.05;;;;;;;-145.06;100.00;60892.56;4785508;28;20634;-87
2022/08/31 10:31:22;;;;;;;1.48;1.10;;;;;;;-145.06;100.00;60892.56;4773934;28;20035;-85
2022/08/31 10:38:07;;;;;;;1.70;1.15;;;;;;;-145.06;100.00;60892.56;4789617;28;20038;-85
2022/08/31 10:41:13;;;;;;;2.53;1.25;;;;;;;-145.06;100.00;60892.56;4719897;28;20035;-86
2022/08/31 10:44:03;;;;;;;2.17;1.48;;;;;;;-145.06;100.00;60892.56;4794727;28;20334;-85
2022/08/31 10:46:42;;;;;;;;;;;;;;;-145.06;100.00;60892.56;4778030;28;20062;-85
2022/08/31 10:49:21;;;;;;;1.25;0.95;;;;;;;-145.06;100.00;60892.56;4782621;28;20574;-85
2022/08/31 10:52:16;;;;;;;1.97;1.20;;;;;;;-145.06;100.00;60892.56;4789080;28;20043;-85
2022/08/31 10:55:05;;;;;;;1.35;1.20;;;;;;;-145.06;100.00;60892.56;4791137;28;21906;-84
2022/08/31 10:57:50;;;;;;;3.40;1.23;;;;;;;-145.06;100.00;60892.56;4770092;28;20325;-84
2022/08/31 11:01:08;;;;;;;2.33;1.10;;;;;;;-145.06;100.00;60892.56;4775457;28;20039;-84
2022/08/31 11:03:50;;;;;;;1.20;0.93;;;;;;;-145.06;100.00;60892.56;4783893;28;20341;-84
2022/08/31 11:06:57;;;;;;;1.67;1.20;;;;;;;-145.06;100.00;60892.56;4797327;28;20099;-85
2022/08/31 11:10:07;;;;;;;1.13;1.02;;;;;;;-145.06;100.00;60892.56;4791585;28;20027;-84
2022/08/31 11:12:54;;;;;;;1.88;1.30;;;;;;;-145.06;100.00;60892.56;4796855;28;20497;-84
2022/08/31 11:16:17;;;;;;;1.63;1.15;;;;;;;-145.06;100.00;60892.56;4766325;28;20631;-84
2022/08/31 11:19:06;;;;;;;1.50;1.23;;;;;;;-145.06;100.00;60892.56;4740539;29;20044;-84
2022/08/31 11:22:08;;;;;;;1.48;0.95;;;;;;;-145.06;100.00;60892.56;4794345;28;20031;-84
2022/08/31 11:25:06;;;;;;;2.28;1.20;;;;;;;-145.06;100.00;60892.56;4779070;28;20641;-84
2022/08/31 11:27:50;;;;;;;1.90;1.08;;;;;;;-145.06;100.00;60892.56;4787455;28;20425;-83
2022/08/31 11:30:32;;;;;;;1.42;1.27;;;;;;;-145.06;100.00;60892.56;4795149;28;20034;-84
2022/08/31 11:33:18;;;;;;;2.92;1.20;;;;;;;-145.06;100.00;60892.56;4780135;28;20035;-84
2022/08/31 11:38:53;;;;;;;1.67;1.33;;;;;;;-145.06;100.00;60892.56;4790111;28;20055;-84
2022/08/31 11:41:51;;;;;;;2.20;1.50;;;;;;;-145.06;100.00;60892.56;4794803;28;20504;-84
2022/08/31 11:44:30;;;;;;;1.95;1.30;;;;;;;-145.06;100.00;60892.56;4798491;28;20362;-84
2022/08/31 11:47:28;;;;;;;1.60;1.20;;;;;;;-145.06;100.00;60892.56;4788716;28;20481;-83
2022/08/31 11:50:30;;;;;;;1.48;1.17;;;;;;;-145.06;100.00;60892.56;4802713;28;20038;-84
2022/08/31 11:53:24;;;;;;;2.50;1.30;;;;;;;-145.06;100.00;60892.56;4782627;28;20042;-84
2022/08/31 11:56:05;;;;;;;1.17;1.08;;;;;;;-145.06;100.00;60892.56;4783488;28;20362;-84
2022/08/31 11:58:52;;;;;;;1.48;1.35;;;;;;;-145.06;100.00;60892.56;4782888;28;20042;-84
2022/08/31 12:01:34;;;;;;;1.42;1.00;;;;;;;-145.06;100.00;60892.56;4782631;28;20042;-84
2022/08/31 12:04:28;;;;;;;1.58;1.30;;;;;;;-145.06;100.00;60892.56;4795706;28;20035;-84
2022/08/31 12:07:12;;;;;;;1.90;1.25;;;;;;;-145.06;100.00;60892.56;4793803;28;20378;-84
2022/08/31 12:10:10;;;;;;;1.92;1.35;;;;;;;-145.06;100.00;60892.56;4797145;28;20038;-84
2022/08/31 12:13:24;;;;;;;1.35;1.17;;;;;;;-145.06;100.00;60892.56;4794890;28;20030;-83
2022/08/31 12:16:19;;;;;;;1.50;1.15;;;;;;;-145.06;100.00;60892.56;4796125;28;20043;-84
2022/08/31 12:26:29;;;;;;;1.60;1.17;;;;;;;-145.06;100.00;60892.56;4795085;28;20398;-84
2022/08/31 12:29:23;;;;;;;1.88;1.20;;;;;;;-145.06;100.00;60892.56;4798893;28;20062;-84
2022/08/31 12:32:06;;;;;;;1.70;1.30;;;;;;;-145.06;100.00;60892.56;4826684;28;20045;-83
2022/08/31 12:34:54;;;;;;;1.80;1.30;;;;;;;-145.06;100.00;60892.56;4793076;28;20030;-83
2022/08/31 12:37:36;;;;;;;2.45;1.52;;;;;;;-145.06;100.00;60892.56;4797527;28;20023;-84
2022/08/31 12:40:21;;;;;;;1.10;1.00;;;;;;;-145.06;100.00;60892.56;4780875;28;20030;-84
2022/08/31 12:43:12;;;;;;;2.22;1.67;;;;;;;-145.06;100.00;60892.56;4785510;28;20465;-84
2022/08/31 12:46:01;;;;;;;2.17;1.67;;;;;;;-145.06;100.00;60892.56;4799726;28;20069;-84
2022/08/31 12:49:08;;;;;;;1.55;1.38;;;;;;;-145.06;100.00;60892.56;4794537;28;20027;-84
2022/08/31 12:51:58;;;;;;;1.38;1.15;;;;;;;-145.06;100.00;60892.56;4797923;28;20030;-84
2022/08/31 12:54:49;;;;;;;1.40;1.23;;;;;;;-145.06;100.00;60892.56;4794443;28;20030;-84
2022/08/31 12:57:47;;;;;;;1.75;1.48;;;;;;;-145.06;100.00;60892.56;4800592;28;20035;-84